Time;durP1;ratioP1;P1;durP2;ratioP2;P2;SDS_P1;SDS_P2;PMS_P1;PMS_P2;Temp;Humidity;BMP_temperature;BMP_pressure;BME280_temperature;BME280_humidity;BME280_pressure;Samples;Min_cycle;Max_cycle;Signal;HPM_P1;HPM_P2
2022/11/22 00:01:22;;;;;;;0.40;0.40;;;13.50;76.50;;;;;;5071347;28;20204;-63
2022/11/22 00:04:10;;;;;;;0.40;0.40;;;13.40;75.80;;;;;;5071797;28;20715;-64
2022/11/22 00:06:59;;;;;;;0.40;0.40;;;13.40;84.20;;;;;;5071587;28;20193;-62
2022/11/22 00:09:47;;;;;;;0.40;0.40;;;13.40;76.70;;;;;;5072125;28;20196;-63
2022/11/22 00:12:35;;;;;;;0.40;0.40;;;13.40;76.30;;;;;;5072326;28;20235;-63
2022/11/22 00:15:24;;;;;;;0.40;0.40;;;13.30;75.80;;;;;;5072594;28;20205;-63
2022/11/22 00:18:12;;;;;;;0.77;0.77;;;13.30;75.80;;;;;;5071332;28;20295;-62
2022/11/22 00:21:05;;;;;;;0.40;0.40;;;13.30;76.30;;;;;;5070826;28;20644;-62
2022/11/22 00:23:56;;;;;;;1.70;1.60;;;13.20;75.90;;;;;;5071661;28;20204;-63
2022/11/22 00:26:44;;;;;;;0.40;0.40;;;13.10;75.60;;;;;;5071243;28;20229;-63
2022/11/22 00:29:32;;;;;;;0.63;0.63;;;13.20;76.30;;;;;;5071785;28;20231;-62
2022/11/22 00:32:21;;;;;;;0.40;0.40;;;13.40;76.10;;;;;;5071769;28;20208;-62
2022/11/22 00:35:11;;;;;;;0.40;0.40;;;13.10;75.70;;;;;;5071507;28;20208;-64
2022/11/22 00:37:59;;;;;;;0.40;0.40;;;13.00;76.60;;;;;;5075910;28;20443;-64
2022/11/22 00:40:47;;;;;;;0.40;0.40;;;13.00;76.40;;;;;;5094747;28;20185;-64
2022/11/22 00:43:35;;;;;;;0.40;0.40;;;13.00;76.50;;;;;;5095793;28;20186;-63
2022/11/22 00:46:23;;;;;;;0.40;0.40;;;13.10;76.50;;;;;;5085261;28;20280;-63
2022/11/22 00:49:12;;;;;;;0.40;0.40;;;13.00;76.30;;;;;;5076328;28;20208;-62
2022/11/22 00:52:00;;;;;;;0.40;0.40;;;13.00;76.30;;;;;;5076001;28;20441;-63
2022/11/22 00:54:48;;;;;;;0.40;0.40;;;13.00;75.80;;;;;;5075729;28;20279;-62
2022/11/22 00:57:41;;;;;;;0.40;0.40;;;13.00;76.40;;;;;;5075871;28;20220;-62
2022/11/22 01:00:29;;;;;;;0.40;0.40;;;13.20;77.80;;;;;;5075028;28;20556;-63
2022/11/22 01:03:18;;;;;;;0.40;0.40;;;13.10;77.60;;;;;;5074974;28;20423;-62
2022/11/22 01:06:07;;;;;;;0.60;0.60;;;13.20;77.40;;;;;;5075640;28;20939;-62
2022/11/22 01:08:55;;;;;;;0.40;0.40;;;13.30;77.30;;;;;;5074212;28;20221;-62
2022/11/22 01:11:43;;;;;;;0.40;0.40;;;13.30;76.80;;;;;;5075568;28;20628;-62
2022/11/22 01:14:31;;;;;;;0.40;0.40;;;13.40;76.50;;;;;;5074798;28;20431;-63
2022/11/22 01:17:19;;;;;;;0.40;0.40;;;13.30;76.30;;;;;;5075485;28;20221;-62
2022/11/22 01:20:08;;;;;;;0.40;0.40;;;13.10;76.10;;;;;;5073870;28;20208;-63
2022/11/22 01:22:58;;;;;;;0.40;0.40;;;13.30;75.60;;;;;;5074134;28;20685;-62
2022/11/22 01:25:46;;;;;;;0.40;0.40;;;13.30;76.30;;;;;;5074636;28;20423;-62
2022/11/22 01:28:34;;;;;;;1.27;1.27;;;13.30;75.70;;;;;;5074169;28;20700;-63
2022/11/22 01:31:22;;;;;;;0.40;0.40;;;13.30;75.80;;;;;;5074561;28;20581;-62
2022/11/22 01:34:10;;;;;;;0.40;0.40;;;13.20;75.50;;;;;;5074827;28;20693;-62
2022/11/22 01:36:58;;;;;;;0.40;0.40;;;13.20;87.40;;;;;;5075516;28;20226;-62
2022/11/22 01:39:48;;;;;;;0.40;0.40;;;13.10;75.40;;;;;;5074630;28;20201;-63
2022/11/22 01:42:44;;;;;;;0.40;0.40;;;12.90;75.10;;;;;;5074850;28;20276;-62
2022/11/22 01:45:42;;;;;;;0.40;0.40;;;13.10;75.70;;;;;;5074967;28;20206;-63
2022/11/22 01:48:37;;;;;;;1.73;1.63;;;13.00;75.60;;;;;;5074140;28;20228;-63
2022/11/22 01:51:29;;;;;;;0.40;0.40;;;13.00;75.60;;;;;;5073322;28;20200;-62
2022/11/22 01:54:21;;;;;;;0.50;0.50;;;12.90;76.10;;;;;;5073649;28;20416;-62
2022/11/22 01:57:16;;;;;;;1.23;1.23;;;12.90;75.50;;;;;;5075232;28;20224;-61
2022/11/22 02:00:07;;;;;;;0.40;0.40;;;12.90;76.20;;;;;;5073760;28;20547;-63
2022/11/22 02:03:00;;;;;;;0.40;0.40;;;12.90;77.20;;;;;;5074129;28;20514;-62
2022/11/22 02:05:49;;;;;;;0.40;0.40;;;12.90;76.70;;;;;;5075043;28;20781;-64
2022/11/22 02:08:41;;;;;;;0.70;0.70;;;13.00;76.90;;;;;;5074474;28;20545;-62
2022/11/22 02:11:30;;;;;;;1.07;1.07;;;13.00;77.30;;;;;;5074231;28;20205;-62
2022/11/22 02:14:26;;;;;;;0.40;0.40;;;13.10;77.10;;;;;;5074349;28;20200;-63
2022/11/22 02:17:14;;;;;;;0.40;0.40;;;13.20;76.90;;;;;;5074488;28;20259;-63
2022/11/22 02:20:02;;;;;;;0.40;0.40;;;13.30;76.90;;;;;;5074444;28;20442;-62
2022/11/22 02:22:55;;;;;;;0.40;0.40;;;14.10;77.30;;;;;;5074176;28;20430;-63
2022/11/22 02:25:51;;;;;;;0.40;0.40;;;13.30;76.60;;;;;;5075080;28;20209;-63
2022/11/22 02:28:40;;;;;;;0.40;0.40;;;13.40;76.40;;;;;;5073904;28;20439;-63
2022/11/22 02:31:41;;;;;;;0.40;0.40;;;13.30;76.00;;;;;;5073728;28;20200;-62
2022/11/22 02:34:29;;;;;;;0.40;0.40;;;13.30;75.50;;;;;;5087998;28;20200;-64
2022/11/22 02:37:20;;;;;;;0.40;0.40;;;13.30;75.70;;;;;;5094329;28;20298;-64
2022/11/22 02:40:13;;;;;;;0.40;0.40;;;13.30;75.90;;;;;;5093959;28;20236;-62
2022/11/22 02:43:05;;;;;;;0.40;0.40;;;13.30;75.70;;;;;;5094295;28;20234;-62
2022/11/22 02:45:53;;;;;;;0.40;0.40;;;13.30;75.80;;;;;;5093895;28;20279;-62
2022/11/22 02:48:42;;;;;;;0.40;0.40;;;13.30;75.70;;;;;;5093711;28;20695;-62
2022/11/22 02:51:30;;;;;;;0.40;0.40;;;13.30;76.00;;;;;;5093690;28;20281;-63
2022/11/22 02:54:18;;;;;;;0.40;0.40;;;13.20;75.50;;;;;;5094192;28;20277;-63
2022/11/22 02:57:07;;;;;;;0.40;0.40;;;13.20;75.20;;;;;;5093672;28;20345;-62
2022/11/22 02:59:56;;;;;;;0.40;0.40;;;12.90;74.80;;;;;;5093046;28;20275;-63
2022/11/22 03:02:44;;;;;;;0.40;0.40;;;13.10;75.50;;;;;;5092959;28;20426;-63
2022/11/22 03:05:32;;;;;;;0.40;0.40;;;13.00;75.70;;;;;;5092924;28;20242;-63
2022/11/22 03:08:20;;;;;;;0.40;0.40;;;13.00;75.50;;;;;;5092995;28;20298;-62
2022/11/22 03:11:08;;;;;;;0.50;0.50;;;12.90;75.50;;;;;;5092839;28;20337;-62
2022/11/22 03:13:56;;;;;;;0.40;0.40;;;13.00;75.70;;;;;;5093293;28;20617;-62
2022/11/22 03:16:47;;;;;;;0.40;0.40;;;12.80;75.10;;;;;;5092901;28;20460;-62
2022/11/22 03:19:35;;;;;;;0.60;0.60;;;12.80;75.80;;;;;;5092516;28;20479;-62
2022/11/22 03:22:23;;;;;;;0.77;0.77;;;12.80;75.90;;;;;;5093604;28;20279;-62
2022/11/22 03:25:11;;;;;;;0.40;0.40;;;12.90;77.10;;;;;;5091639;28;20946;-62
2022/11/22 03:27:59;;;;;;;0.40;0.40;;;13.00;77.10;;;;;;5093897;28;20349;-63
2022/11/22 03:30:47;;;;;;;1.80;1.70;;;13.00;76.70;;;;;;5093653;28;20495;-63
2022/11/22 03:33:36;;;;;;;0.40;0.40;;;13.10;76.60;;;;;;5093256;28;20196;-63
2022/11/22 03:36:24;;;;;;;0.40;0.40;;;13.10;76.30;;;;;;5092906;28;20235;-62
2022/11/22 03:39:12;;;;;;;0.40;0.40;;;13.10;76.00;;;;;;5092576;28;20423;-63
2022/11/22 03:42:00;;;;;;;0.40;0.40;;;13.50;75.90;;;;;;5093068;28;20196;-63
2022/11/22 03:44:49;;;;;;;0.40;0.40;;;13.10;75.80;;;;;;5092596;28;20775;-63
2022/11/22 03:47:37;;;;;;;0.40;0.40;;;13.10;75.70;;;;;;5093328;28;20588;-62
2022/11/22 03:50:26;;;;;;;0.40;0.40;;;13.10;75.90;;;;;;5092203;28;20249;-62
2022/11/22 03:53:14;;;;;;;0.40;0.40;;;13.10;75.10;;;;;;5092366;28;20249;-62
2022/11/22 03:56:02;;;;;;;0.40;0.40;;;13.10;75.50;;;;;;5092420;28;20427;-62
2022/11/22 03:58:50;;;;;;;0.40;0.40;;;13.10;75.70;;;;;;5092842;28;21136;-63
2022/11/22 04:01:38;;;;;;;0.60;0.60;;;13.00;75.40;;;;;;5093166;28;20693;-62
2022/11/22 04:04:27;;;;;;;0.40;0.40;;;13.00;75.70;;;;;;5091996;28;20978;-62
2022/11/22 04:07:16;;;;;;;0.50;0.50;;;13.00;75.50;;;;;;5092135;28;20449;-62
2022/11/22 04:10:05;;;;;;;0.40;0.40;;;12.90;75.90;;;;;;5092916;28;20422;-62
2022/11/22 04:12:57;;;;;;;0.40;0.40;;;12.90;75.80;;;;;;5093126;28;20282;-62
2022/11/22 04:15:44;;;;;;;0.40;0.40;;;12.80;75.90;;;;;;5090756;28;20418;-62
2022/11/22 04:18:32;;;;;;;0.40;0.40;;;12.80;76.10;;;;;;5092657;28;20470;-63
2022/11/22 04:21:35;;;;;;;0.40;0.40;;;12.80;75.90;;;;;;5092697;28;20415;-63
2022/11/22 04:27:30;;;;;;;0.40;0.40;;;12.60;75.70;;;;;;5092739;28;20557;-63
2022/11/22 04:30:19;;;;;;;0.40;0.40;;;12.70;76.30;;;;;;5092280;28;20563;-62
2022/11/22 04:33:07;;;;;;;0.40;0.40;;;12.90;77.30;;;;;;5091741;28;20199;-62
2022/11/22 04:35:55;;;;;;;0.40;0.40;;;13.00;77.20;;;;;;5091021;28;20926;-63
2022/11/22 04:38:43;;;;;;;0.40;0.40;;;13.10;76.70;;;;;;5091920;28;20223;-62
2022/11/22 04:41:32;;;;;;;0.40;0.40;;;13.20;76.60;;;;;;5092262;28;20513;-63
2022/11/22 04:53:44;;;;;;;1.37;1.37;;;13.30;75.20;;;;;;5051104;28;20622;-64
2022/11/22 04:56:33;;;;;;;0.40;0.40;;;13.30;75.30;;;;;;5051106;28;20208;-63
2022/11/22 04:59:21;;;;;;;0.40;0.40;;;13.30;75.00;;;;;;5050463;28;20231;-63
2022/11/22 05:02:09;;;;;;;0.40;0.40;;;13.00;74.40;;;;;;5052345;28;20201;-62
2022/11/22 05:04:57;;;;;;;0.40;0.40;;;13.10;74.60;;;;;;5052528;28;20201;-63
2022/11/22 05:07:45;;;;;;;0.40;0.40;;;13.20;74.50;;;;;;5052494;28;20297;-63
2022/11/22 05:13:39;;;;;;;0.40;0.40;;;13.10;74.80;;;;;;5042608;28;20742;-64
2022/11/22 05:16:27;;;;;;;0.40;0.40;;;13.10;75.30;;;;;;5050633;28;20286;-64
2022/11/22 05:19:15;;;;;;;0.50;0.50;;;13.00;75.10;;;;;;5050469;28;20343;-64
2022/11/22 05:22:03;;;;;;;0.40;0.40;;;13.00;75.00;;;;;;5052063;28;20678;-64
2022/11/22 05:24:50;;;;;;;0.40;0.40;;;13.00;75.50;;;;;;5050953;28;20804;-64
2022/11/22 05:27:38;;;;;;;0.40;0.40;;;12.90;75.50;;;;;;5055958;28;20213;-64
2022/11/22 05:30:28;;;;;;;0.40;0.40;;;13.00;75.50;;;;;;5055336;28;20201;-63
2022/11/22 05:33:16;;;;;;;0.40;0.40;;;12.90;75.90;;;;;;5054648;28;20892;-64
2022/11/22 05:36:05;;;;;;;0.40;0.40;;;12.90;75.50;;;;;;5055583;28;20314;-64
2022/11/22 05:38:54;;;;;;;0.40;0.40;;;12.90;75.60;;;;;;5055064;28;20614;-64
2022/11/22 05:41:54;;;;;;;0.40;0.40;;;12.90;76.10;;;;;;5054564;28;20263;-63
2022/11/22 05:44:43;;;;;;;0.40;0.40;;;12.90;75.50;;;;;;5054688;28;20601;-63
2022/11/22 05:47:35;;;;;;;0.40;0.40;;;12.90;77.80;;;;;;5055265;28;20431;-63
2022/11/22 05:50:23;;;;;;;0.40;0.40;;;13.00;77.20;;;;;;5053757;28;20239;-64
2022/11/22 05:53:11;;;;;;;0.60;0.60;;;13.10;76.70;;;;;;5054873;28;20229;-64
2022/11/22 05:56:04;;;;;;;0.40;0.40;;;13.20;76.80;;;;;;5054610;28;20198;-64
2022/11/22 05:58:53;;;;;;;0.40;0.40;;;13.30;76.40;;;;;;5055255;28;20272;-64
2022/11/22 06:01:41;;;;;;;0.50;0.50;;;13.30;76.20;;;;;;5055845;28;20255;-63
2022/11/22 06:04:31;;;;;;;0.40;0.40;;;13.50;76.20;;;;;;5055333;28;20573;-64
2022/11/22 06:07:19;;;;;;;0.40;0.40;;;13.40;75.30;;;;;;5054616;28;20459;-64
2022/11/22 06:10:08;;;;;;;0.43;0.43;;;13.40;75.90;;;;;;5054691;28;20203;-64
2022/11/22 06:12:56;;;;;;;0.40;0.40;;;13.40;75.30;;;;;;5055273;28;20279;-64
2022/11/22 06:15:44;;;;;;;0.40;0.40;;;13.40;75.40;;;;;;5047465;28;20233;-64
2022/11/22 06:18:33;;;;;;;0.40;0.40;;;13.40;75.20;;;;;;5054872;28;20549;-64
2022/11/22 06:21:25;;;;;;;0.40;0.40;;;13.30;74.70;;;;;;5054479;28;20432;-63
2022/11/22 06:24:13;;;;;;;0.40;0.40;;;13.30;74.80;;;;;;5054211;28;20201;-65
2022/11/22 06:27:01;;;;;;;0.40;0.40;;;13.30;75.00;;;;;;5054506;28;20229;-64
2022/11/22 06:29:49;;;;;;;0.40;0.40;;;13.00;74.90;;;;;;5047998;28;20197;-64
2022/11/22 06:32:37;;;;;;;0.40;0.40;;;13.10;75.50;;;;;;5054947;28;20275;-64
2022/11/22 06:35:25;;;;;;;0.50;0.50;;;13.10;75.60;;;;;;5054150;28;20470;-64
2022/11/22 06:38:14;;;;;;;0.40;0.40;;;13.10;75.50;;;;;;5053376;28;20296;-64
2022/11/22 06:41:03;;;;;;;0.93;0.93;;;13.00;75.50;;;;;;5049872;28;20692;-64
2022/11/22 06:43:53;;;;;;;0.40;0.40;;;13.10;76.20;;;;;;5052400;28;21047;-64
2022/11/22 06:46:41;;;;;;;0.40;0.40;;;13.10;75.90;;;;;;5050753;28;20428;-64
2022/11/22 06:49:29;;;;;;;0.80;0.80;;;13.10;76.00;;;;;;5063419;28;20479;-64
2022/11/22 06:52:18;;;;;;;0.40;0.40;;;13.10;75.70;;;;;;5072850;28;20930;-64
2022/11/22 06:55:08;;;;;;;0.40;0.40;;;13.00;75.80;;;;;;5073693;28;20455;-64
2022/11/22 06:58:16;;;;;;;0.40;0.40;;;13.00;76.00;;;;;;5046748;28;20680;-64
2022/11/22 07:01:06;;;;;;;0.40;0.40;;;12.90;76.20;;;;;;5050711;28;20347;-64
2022/11/22 07:03:56;;;;;;;0.40;0.40;;;12.90;76.10;;;;;;5053382;28;20432;-64
2022/11/22 07:06:47;;;;;;;0.40;0.40;;;12.80;76.10;;;;;;5034322;28;20195;-64
2022/11/22 07:09:37;;;;;;;0.40;0.40;;;12.80;77.10;;;;;;5074500;28;20274;-64
2022/11/22 07:12:26;;;;;;;0.70;0.70;;;13.00;77.20;;;;;;5077655;28;20477;-63
2022/11/22 07:15:14;;;;;;;1.07;1.07;;;13.30;77.00;;;;;;5067465;28;20436;-63
2022/11/22 07:18:03;;;;;;;0.40;0.40;;;13.50;76.60;;;;;;5073827;28;20259;-65
2022/11/22 07:20:51;;;;;;;0.50;0.50;;;12.80;75.40;;;;;;5078206;28;20201;-64
2022/11/22 07:23:40;;;;;;;0.40;0.40;;;13.90;76.00;;;;;;5075695;28;20361;-64
2022/11/22 07:26:28;;;;;;;0.40;0.40;;;14.00;75.70;;;;;;5074468;28;20769;-65
2022/11/22 07:29:18;;;;;;;0.50;0.50;;;14.10;75.50;;;;;;5071814;28;20294;-65
2022/11/22 07:32:06;;;;;;;0.47;0.47;;;14.20;75.40;;;;;;5061794;28;20209;-65
2022/11/22 07:34:54;;;;;;;0.50;0.50;;;14.30;75.20;;;;;;5052399;28;20201;-64
2022/11/22 07:37:42;;;;;;;1.13;1.13;;;14.30;75.10;;;;;;5053159;28;20271;-64
2022/11/22 07:40:30;;;;;;;0.53;0.53;;;14.30;74.90;;;;;;5052045;28;20299;-64
2022/11/22 07:43:18;;;;;;;0.70;0.70;;;14.40;74.80;;;;;;5054179;28;20260;-64
2022/11/22 07:46:16;;;;;;;0.40;0.40;;;14.40;74.70;;;;;;5058334;28;20740;-65
2022/11/22 07:49:05;;;;;;;0.40;0.40;;;14.40;74.70;;;;;;5040127;28;20222;-64
2022/11/22 07:51:55;;;;;;;0.40;0.40;;;14.40;74.60;;;;;;5050716;28;20255;-64
2022/11/22 07:54:43;;;;;;;0.40;0.40;;;14.40;74.50;;;;;;5052188;28;20216;-64
2022/11/22 07:57:32;;;;;;;0.40;0.40;;;14.30;74.60;;;;;;5040075;28;20205;-64
2022/11/22 08:00:21;;;;;;;0.40;0.40;;;14.30;74.80;;;;;;5043350;28;20296;-64
2022/11/22 08:03:11;;;;;;;0.40;0.40;;;14.30;74.90;;;;;;5040612;28;20260;-64
2022/11/22 08:06:07;;;;;;;0.40;0.40;;;14.20;74.90;;;;;;5053918;28;20203;-64
2022/11/22 08:08:55;;;;;;;0.40;0.40;;;14.20;74.90;;;;;;5052608;28;20217;-66
2022/11/22 08:11:49;;;;;;;0.40;0.40;;;14.10;75.10;;;;;;5051690;28;20338;-66
2022/11/22 08:14:37;;;;;;;0.40;0.40;;;14.00;75.20;;;;;;5048696;28;20280;-64
2022/11/22 08:17:25;;;;;;;0.40;0.40;;;13.90;74.90;;;;;;5052069;28;20197;-66
2022/11/22 08:20:15;;;;;;;0.50;0.50;;;13.90;74.80;;;;;;5052428;28;20213;-66
2022/11/22 08:23:03;;;;;;;0.40;0.40;;;13.80;75.80;;;;;;5039484;28;20277;-64
2022/11/22 08:25:52;;;;;;;0.40;0.40;;;13.80;75.70;;;;;;5033174;28;20565;-65
2022/11/22 08:28:41;;;;;;;0.40;0.40;;;13.70;75.30;;;;;;5043665;28;20296;-66
2022/11/22 08:31:30;;;;;;;0.40;0.40;;;13.60;75.70;;;;;;5051572;28;20193;-65
2022/11/22 08:34:18;;;;;;;0.40;0.40;;;13.50;75.80;;;;;;5065698;28;20204;-66
2022/11/22 08:37:08;;;;;;;0.40;0.40;;;13.40;76.00;;;;;;5072534;28;20215;-66
2022/11/22 08:39:56;;;;;;;0.40;0.40;;;13.30;76.10;;;;;;5060406;28;20302;-65
2022/11/22 08:42:44;;;;;;;0.40;0.40;;;13.30;76.10;;;;;;5044830;28;20206;-66
2022/11/22 08:45:32;;;;;;;0.70;0.70;;;13.20;76.30;;;;;;5046949;28;20485;-66
2022/11/22 08:48:20;;;;;;;0.70;0.70;;;13.10;76.20;;;;;;5044648;28;20225;-66
2022/11/22 08:51:11;;;;;;;0.40;0.40;;;13.10;76.70;;;;;;5036789;28;20490;-65
2022/11/22 08:53:48;;;;;;;0.40;0.40;;;13.10;77.30;;;;;;5050609;28;20447;-66
2022/11/22 08:56:16;;;;;;;0.40;0.40;;;13.10;77.00;;;;;;5050377;28;20229;-65
2022/11/22 08:58:44;;;;;;;0.50;0.50;;;13.10;77.20;;;;;;5050247;28;20448;-65
2022/11/22 09:01:15;;;;;;;0.40;0.40;;;13.10;77.60;;;;;;5051417;28;20220;-65
2022/11/22 09:03:45;;;;;;;0.40;0.40;;;13.20;78.00;;;;;;5055595;28;20204;-66
2022/11/22 09:06:14;;;;;;;1.47;1.37;;;13.30;77.80;;;;;;5055835;28;20428;-66
2022/11/22 09:09:03;;;;;;;0.40;0.40;;;13.40;77.70;;;;;;5055789;28;20456;-65
2022/11/22 09:11:51;;;;;;;0.40;0.40;;;13.60;77.70;;;;;;5048521;28;20526;-66
2022/11/22 09:14:19;;;;;;;0.40;0.40;;;13.60;77.30;;;;;;5061780;28;20209;-66
2022/11/22 09:16:47;;;;;;;0.40;0.40;;;13.70;77.20;;;;;;5054947;28;20205;-66
2022/11/22 09:19:15;;;;;;;0.40;0.40;;;13.70;77.20;;;;;;5054728;28;20259;-66
2022/11/22 09:21:43;;;;;;;0.40;0.40;;;13.70;77.20;;;;;;5055148;28;20198;-66
2022/11/22 09:24:13;;;;;;;0.40;0.40;;;13.80;76.90;;;;;;5063355;28;20280;-66
2022/11/22 09:26:41;;;;;;;0.50;0.50;;;13.80;77.20;;;;;;5075321;28;20196;-65
2022/11/22 09:29:09;;;;;;;0.40;0.40;;;13.70;76.90;;;;;;5059725;28;20223;-65
2022/11/22 09:31:37;;;;;;;1.00;1.00;;;13.70;77.40;;;;;;5055653;28;20209;-65
2022/11/22 09:34:07;;;;;;;0.40;0.40;;;13.80;77.10;;;;;;5054531;28;20205;-65
2022/11/22 09:36:34;;;;;;;1.47;1.37;;;13.70;77.30;;;;;;5055460;28;20251;-65
2022/11/22 09:39:03;;;;;;;0.60;0.60;;;13.70;77.40;;;;;;5055380;28;20274;-65
2022/11/22 09:41:58;;;;;;;0.40;0.40;;;13.70;77.50;;;;;;5055026;28;20221;-65
2022/11/22 09:44:35;;;;;;;0.40;0.40;;;13.60;77.20;;;;;;5059869;28;20201;-65
2022/11/22 09:47:15;;;;;;;0.40;0.40;;;13.60;77.50;;;;;;5062561;28;20540;-65
2022/11/22 09:49:53;;;;;;;0.40;0.40;;;13.50;77.00;;;;;;5048974;28;20236;-66
2022/11/22 09:52:29;;;;;;;1.33;1.23;;;13.50;77.30;;;;;;5054718;28;20197;-65
2022/11/22 09:55:01;;;;;;;0.40;0.40;;;13.40;77.40;;;;;;5051330;28;20197;-65
2022/11/22 09:57:35;;;;;;;0.40;0.40;;;13.30;77.50;;;;;;5054816;28;20201;-64
2022/11/22 10:00:07;;;;;;;0.40;0.40;;;13.40;77.70;;;;;;5054531;28;20225;-65
2022/11/22 10:02:39;;;;;;;0.40;0.40;;;13.30;77.80;;;;;;5055109;28;20188;-66
2022/11/22 10:05:32;;;;;;;0.60;0.60;;;13.30;78.10;;;;;;5053800;28;20201;-66
2022/11/22 10:08:08;;;;;;;0.40;0.40;;;13.30;78.20;;;;;;5056707;28;20229;-65
2022/11/22 10:10:41;;;;;;;0.40;0.40;;;13.20;78.00;;;;;;5072579;28;20192;-65
2022/11/22 10:13:16;;;;;;;0.77;0.77;;;13.20;78.10;;;;;;5035400;28;20212;-65
2022/11/22 10:15:51;;;;;;;0.40;0.40;;;13.20;78.40;;;;;;5054172;28;20251;-65
2022/11/22 10:18:25;;;;;;;5.83;1.90;;;13.20;78.60;;;;;;5043378;28;20226;-65
2022/11/22 10:20:53;;;;;;;0.40;0.40;;;13.20;78.60;;;;;;5036127;28;20272;-65
2022/11/22 10:23:23;;;;;;;0.40;0.40;;;13.20;78.50;;;;;;5054637;28;20527;-66
2022/11/22 10:25:57;;;;;;;1.00;1.00;;;13.20;78.50;;;;;;5054739;28;20439;-65
2022/11/22 10:28:33;;;;;;;1.77;1.67;;;13.20;78.80;;;;;;5054337;28;20452;-65
2022/11/22 10:31:05;;;;;;;2.50;2.30;;;13.20;78.80;;;;;;5038643;28;20197;-65
2022/11/22 10:33:42;;;;;;;0.40;0.40;;;13.20;78.80;;;;;;5034435;28;20431;-65
2022/11/22 10:36:28;;;;;;;0.40;0.40;;;13.20;79.20;;;;;;5034412;28;20208;-65
2022/11/22 10:39:09;;;;;;;0.70;0.70;;;13.20;79.30;;;;;;5042886;28;20496;-66
2022/11/22 10:41:49;;;;;;;0.40;0.40;;;13.20;79.30;;;;;;5054062;28;20221;-65
2022/11/22 10:44:28;;;;;;;0.40;0.40;;;13.20;79.00;;;;;;5054145;28;20197;-65
2022/11/22 10:47:06;;;;;;;0.40;0.40;;;13.20;79.10;;;;;;5053850;28;20201;-65
2022/11/22 10:49:49;;;;;;;0.40;0.40;;;13.30;79.40;;;;;;5067671;28;20263;-65
2022/11/22 10:52:27;;;;;;;0.40;0.40;;;13.30;79.50;;;;;;5087128;22;20243;-66
2022/11/22 10:55:29;;;;;;;0.40;0.40;;;13.30;79.40;;;;;;5071097;28;20224;-65
2022/11/22 10:58:05;;;;;;;0.40;0.40;;;13.30;79.30;;;;;;5073696;28;20603;-66
2022/11/22 11:00:39;;;;;;;0.40;0.40;;;13.40;79.40;;;;;;5077910;28;20228;-66
2022/11/22 11:03:19;;;;;;;0.53;0.53;;;13.40;79.40;;;;;;5085357;28;20207;-66
2022/11/22 11:05:51;;;;;;;0.50;0.50;;;13.30;79.20;;;;;;5092065;28;20291;-65
2022/11/22 11:08:42;;;;;;;0.40;0.40;;;13.30;79.50;;;;;;5073827;28;20204;-65
2022/11/22 11:11:30;;;;;;;1.57;1.57;;;13.30;79.80;;;;;;5053757;28;20440;-66
2022/11/22 11:14:01;;;;;;;0.40;0.40;;;13.30;79.80;;;;;;5071953;28;20248;-65
2022/11/22 11:16:35;;;;;;;0.40;0.40;;;13.30;79.60;;;;;;5073455;28;20279;-67
2022/11/22 11:19:13;;;;;;;0.40;0.40;;;13.30;79.70;;;;;;5073697;28;20204;-65
2022/11/22 11:21:42;;;;;;;0.43;0.43;;;13.30;79.60;;;;;;5073487;28;20228;-66
2022/11/22 11:24:13;;;;;;;0.40;0.40;;;13.20;79.60;;;;;;5072997;28;20223;-65
2022/11/22 11:26:43;;;;;;;0.40;0.40;;;13.20;79.90;;;;;;5073046;28;20193;-67
2022/11/22 11:29:33;;;;;;;0.40;0.40;;;13.20;80.10;;;;;;5072809;28;20219;-66
2022/11/22 11:32:12;;;;;;;0.40;0.40;;;13.20;80.20;;;;;;5072745;28;20490;-66
2022/11/22 11:34:46;;;;;;;14.50;10.20;;;13.10;80.10;;;;;;5073420;28;20204;-66
2022/11/22 11:37:26;;;;;;;0.40;0.40;;;13.10;80.00;;;;;;5072047;28;20279;-67
2022/11/22 11:39:54;;;;;;;1.13;1.13;;;13.20;80.40;;;;;;5072521;28;20201;-66
2022/11/22 11:42:25;;;;;;;0.40;0.40;;;13.20;80.30;;;;;;5074981;28;20310;-65
2022/11/22 11:44:54;;;;;;;1.33;1.00;;;13.20;80.50;;;;;;5084224;28;20669;-66
2022/11/22 11:47:34;;;;;;;0.55;0.55;;;13.30;80.70;;;;;;5067742;28;20200;-66
2022/11/22 11:50:02;;;;;;;0.50;0.50;;;13.40;80.50;;;;;;5072799;28;20216;-66
2022/11/22 11:52:30;;;;;;;1.80;1.70;;;13.50;80.50;;;;;;5072780;28;20687;-68
2022/11/22 11:55:02;;;;;;;0.40;0.40;;;13.60;80.30;;;;;;5072986;28;20677;-65
2022/11/22 11:57:33;;;;;;;0.40;0.40;;;13.60;80.00;;;;;;5071926;28;20673;-66
2022/11/22 12:00:03;;;;;;;0.40;0.40;;;13.60;79.70;;;;;;5084655;28;20730;-65
2022/11/22 12:02:39;;;;;;;0.40;0.40;;;13.60;79.90;;;;;;5072647;28;20620;-66
2022/11/22 12:05:23;;;;;;;0.40;0.40;;;13.60;79.60;;;;;;5084483;28;20621;-68
2022/11/22 12:07:51;;;;;;;0.40;0.40;;;13.60;79.40;;;;;;5093551;28;20568;-66
2022/11/22 12:10:38;;;;;;;0.40;0.40;;;13.40;79.90;;;;;;5092673;28;20658;-67
2022/11/22 12:13:15;;;;;;;0.40;0.40;;;13.60;79.70;;;;;;5091563;28;20569;-66
2022/11/22 12:15:51;;;;;;;0.40;0.40;;;13.60;79.60;;;;;;5072891;28;20228;-67
2022/11/22 12:18:41;;;;;;;0.40;0.40;;;13.60;79.70;;;;;;5072413;28;20270;-65
2022/11/22 12:21:18;;;;;;;0.40;0.40;;;13.60;79.80;;;;;;5072317;28;20228;-65
2022/11/22 12:23:51;;;;;;;0.40;0.40;;;13.60;79.90;;;;;;5072778;28;20201;-65
2022/11/22 12:26:20;;;;;;;0.40;0.40;;;13.60;79.80;;;;;;5073004;28;20207;-65
2022/11/22 12:28:49;;;;;;;0.40;0.40;;;13.50;79.90;;;;;;5072615;28;20249;-65
2022/11/22 12:31:26;;;;;;;0.40;0.40;;;13.50;79.80;;;;;;5071950;28;20262;-66
2022/11/22 12:34:00;;;;;;;0.40;0.40;;;13.50;79.80;;;;;;5073036;28;20230;-66
2022/11/22 12:36:41;;;;;;;0.40;0.40;;;13.40;79.90;;;;;;5074346;28;20615;-65
2022/11/22 12:39:14;;;;;;;0.73;0.73;;;13.40;79.90;;;;;;5078821;28;20246;-66
2022/11/22 12:41:46;;;;;;;0.40;0.40;;;13.40;80.20;;;;;;5078605;28;20222;-66
2022/11/22 12:44:18;;;;;;;0.40;0.40;;;13.30;80.20;;;;;;5078899;28;20203;-64
2022/11/22 12:46:50;;;;;;;0.40;0.40;;;13.30;80.50;;;;;;5071555;28;20196;-65
2022/11/22 12:49:34;;;;;;;0.40;0.40;;;13.30;80.70;;;;;;5080079;28;20200;-66
2022/11/22 12:52:11;;;;;;;0.40;0.40;;;13.30;81.10;;;;;;5080454;28;20227;-65
2022/11/22 12:54:45;;;;;;;0.50;0.50;;;13.30;80.70;;;;;;5070647;28;20282;-66
2022/11/22 12:57:19;;;;;;;0.40;0.40;;;13.30;80.70;;;;;;5091751;28;20209;-66
2022/11/22 12:59:54;;;;;;;0.40;0.40;;;13.40;81.00;;;;;;5099376;28;20199;-66
2022/11/22 13:02:30;;;;;;;0.40;0.40;;;13.40;81.10;;;;;;5098685;28;20222;-66
2022/11/22 13:05:04;;;;;;;0.40;0.40;;;13.50;81.10;;;;;;5098989;28;20434;-67
2022/11/22 13:07:48;;;;;;;0.40;0.40;;;13.60;80.90;;;;;;5098450;28;20204;-66
2022/11/22 13:10:26;;;;;;;0.40;0.40;;;13.60;80.70;;;;;;5069083;28;20205;-65
2022/11/22 13:13:20;;;;;;;0.40;0.40;;;13.70;80.50;;;;;;5078294;28;20549;-65
2022/11/22 13:15:50;;;;;;;0.40;0.40;;;13.80;80.40;;;;;;5058400;28;20211;-65
2022/11/22 13:18:19;;;;;;;0.40;0.40;;;13.80;80.20;;;;;;5077484;28;20196;-65
2022/11/22 13:20:57;;;;;;;0.40;0.40;;;13.80;80.10;;;;;;5078820;28;20227;-65
2022/11/22 13:23:55;;;;;;;2.83;1.97;;;13.80;80.10;;;;;;5083760;28;20296;-64
2022/11/22 13:26:34;;;;;;;0.40;0.40;;;13.80;80.00;;;;;;5083275;28;20201;-65
2022/11/22 13:29:16;;;;;;;0.40;0.40;;;13.80;80.20;;;;;;5082052;28;20226;-66
2022/11/22 13:32:06;;;;;;;1.70;1.60;;;13.80;80.10;;;;;;5078590;28;20212;-65
2022/11/22 13:34:36;;;;;;;0.40;0.40;;;13.80;80.20;;;;;;5078646;28;20266;-65
2022/11/22 13:37:10;;;;;;;0.73;0.73;;;13.80;80.30;;;;;;5078987;28;20193;-65
2022/11/22 13:39:43;;;;;;;0.40;0.40;;;13.80;80.50;;;;;;5078359;28;20196;-65
2022/11/22 13:42:16;;;;;;;0.60;0.60;;;13.80;80.50;;;;;;5077403;28;20216;-64
2022/11/22 13:45:06;;;;;;;0.40;0.40;;;13.70;80.50;;;;;;5078854;28;20201;-65
2022/11/22 13:47:42;;;;;;;0.50;0.50;;;13.70;80.70;;;;;;5057147;28;20202;-65
2022/11/22 13:50:55;;;;;;;0.40;0.40;;;13.70;80.70;;;;;;5054884;28;20258;-65
2022/11/22 13:53:28;;;;;;;0.40;0.40;;;13.60;80.60;;;;;;5055677;28;20247;-66
2022/11/22 13:55:59;;;;;;;0.50;0.50;;;13.60;80.90;;;;;;5055646;28;20198;-63
2022/11/22 13:58:54;;;;;;;0.40;0.40;;;13.60;81.00;;;;;;5055445;28;20197;-65
2022/11/22 14:01:56;;;;;;;15.20;5.90;;;13.50;81.00;;;;;;5054782;28;20256;-65
2022/11/22 14:04:43;;;;;;;0.40;0.40;;;13.50;81.10;;;;;;5054604;28;20287;-65
2022/11/22 14:07:34;;;;;;;0.40;0.40;;;13.40;81.30;;;;;;5067548;28;20201;-66
2022/11/22 14:10:25;;;;;;;0.40;0.40;;;13.40;81.50;;;;;;5082683;28;20676;-66
2022/11/22 14:13:20;;;;;;;10.87;9.70;;;13.40;81.50;;;;;;5095194;28;20207;-66
2022/11/22 14:16:11;;;;;;;0.90;0.90;;;13.40;81.40;;;;;;5094599;28;20200;-66
2022/11/22 14:19:01;;;;;;;0.50;0.50;;;13.40;81.70;;;;;;5052534;28;20209;-66
2022/11/22 14:22:07;;;;;;;0.40;0.40;;;13.60;81.90;;;;;;5054319;28;20252;-66
2022/11/22 14:24:49;;;;;;;0.40;0.40;;;13.70;81.60;;;;;;5054508;28;20239;-65
2022/11/22 14:27:31;;;;;;;6.17;5.83;;;13.90;81.30;;;;;;5054382;28;20231;-66
2022/11/22 14:30:17;;;;;;;3.70;3.40;;;14.00;81.10;;;;;;5053896;28;20232;-65